Oakland, Oregon
Current Conditions -  °F | °C
As of 1:53 PM on Monday 24 Nov 2014 (Local Time) from KRBG Reporting Station
Broken Clouds Broken Clouds  
Wind Chill: 55°   Ceiling: 10000
Heat Index: 55°   Visibility: 10mi
Dew Point: 40°   Wind: 0mph
Humidity: 57%   Direction: NA
Pressure: 30.35"   Gusts: NA
Location:  43.42°N, 123.3°W
Report Text: KRBG 242153Z AUTO 00000KT 10SM FEW055 BKN100 13/04 A3035 RMK AO2 SLP280 T01280044 TSNO
Loading
Personal Weather Stations






























Interactive Weather Map New forecast layout! Learn more

10-Day Weather Forecast

Advertisements
Track Severe Weather on mobile